Terminal Aerodrome Forecast
Issued by NWS Jackson, MS

Home | Current Version | Previous Version | Text Only | Print | Product List | Glossary On
Versions: 1 2 3 4 5 6 7 8 9 10 11 12 13 14 15
179
FTUS44 KMEG 212332
TAFTUP
TAF
KTUP 212332Z 2200/2224 13007KT P6SM FEW050 BKN250
     FM221300 15010G16KT P6SM VCSH BKN035 OVC100
     FM221700 16012G20KT 6SM -SHRA BR VCTS BKN020CB=

USA.gov is the U.S. government's official web portal to all federal, state and local government web resources and services.